Last 24 Hours

UH Manoa Atmospheric Sciences

15 Minute Data | Pacific/Honolulu
as of 2/26/21 10:59 PM HST
Station Date Time Temp (°F) RH (%) Dew Pt (°F) Wind Spd (mph) Wind Dir (°) Wind Gust (mph) Latest Rain (In) Solar Rad (W/m2) Heat Index (°F) Barometric Pressure (inHg) Daily Rain (In) Daily Min Temp (°F) Daily Max Temp (°F) Daily Max Wind (mph)
UH Manoa Atmospheric Sciences 2/26/21 2245 75.0 66 62.9 9.9 ENE | 58 20.7 0.00 0 75.0 30.16 0.00 73.5 80.3 32.0
UH Manoa Atmospheric Sciences 2/26/21 2230 75.0 65 62.6 8.9 ENE | 61 23.0 0.00 0 75.0 30.16 0.00 73.5 80.3 32.0
UH Manoa Atmospheric Sciences 2/26/21 2215 75.0 66 62.9 10.2 NE | 55 24.1 0.00 0 75.0 30.16 0.00 73.5 80.3 32.0
UH Manoa Atmospheric Sciences 2/26/21 2200 74.8 68 63.4 10.1 ENE | 61 29.2 0.00 0 74.8 30.16 0.00 73.5 80.3 32.0
UH Manoa Atmospheric Sciences 2/26/21 2145 75.1 66 62.8 10.7 ENE | 65 28.9 0.00 0 75.1 30.16 0.00 73.5 80.3 32.0
UH Manoa Atmospheric Sciences 2/26/21 2130 75.1 66 63.0 9.0 ENE | 66 19.6 0.00 0 75.1 30.16 0.00 73.5 80.3 32.0
UH Manoa Atmospheric Sciences 2/26/21 2115 75.1 65 62.6 9.9 ENE | 59 21.3 0.00 0 75.1 30.16 0.00 73.5 80.3 32.0
UH Manoa Atmospheric Sciences 2/26/21 2100 75.2 65 62.7 10.8 ENE | 65 21.1 0.00 0 75.2 30.16 0.00 73.5 80.3 32.0
UH Manoa Atmospheric Sciences 2/26/21 2045 75.1 67 63.5 9.8 ENE | 66 19.1 0.00 0 75.1 30.15 0.00 73.5 80.3 32.0
UH Manoa Atmospheric Sciences 2/26/21 2030 75.4 67 63.6 13.0 ENE | 61 28.8 0.00 0 75.4 30.15 0.00 73.5 80.3 32.0
UH Manoa Atmospheric Sciences 2/26/21 2015 75.4 67 63.6 10.4 ENE | 70 26.5 0.00 0 75.4 30.14 0.00 73.5 80.3 32.0
UH Manoa Atmospheric Sciences 2/26/21 2000 75.4 67 63.7 10.7 ENE | 65 21.2 0.00 0 75.4 30.13 0.00 73.5 80.3 32.0
UH Manoa Atmospheric Sciences 2/26/21 1945 75.5 67 63.6 11.0 ENE | 68 22.3 0.00 0 75.5 30.13 0.00 73.5 80.3 32.0
UH Manoa Atmospheric Sciences 2/26/21 1930 75.5 66 63.6 9.4 ENE | 61 19.8 0.00 0 75.5 30.12 0.00 73.5 80.3 32.0
UH Manoa Atmospheric Sciences 2/26/21 1915 75.7 66 63.6 9.7 ENE | 63 17.5 0.00 0 75.7 30.12 0.00 73.5 80.3 32.0
UH Manoa Atmospheric Sciences 2/26/21 1900 75.5 67 63.7 10.2 ENE | 65 20.8 0.00 0 75.5 30.12 0.00 73.5 80.3 32.0
UH Manoa Atmospheric Sciences 2/26/21 1845 75.8 66 63.7 9.3 ENE | 61 16.0 0.00 1 75.8 30.11 0.00 73.5 80.3 32.0
UH Manoa Atmospheric Sciences 2/26/21 1830 76.1 65 63.4 8.3 ENE | 62 16.2 0.00 7 76.1 30.11 0.00 73.5 80.3 32.0
UH Manoa Atmospheric Sciences 2/26/21 1815 76.6 65 64.1 6.7 ENE | 64 14.3 0.00 27 76.6 30.11 0.00 73.5 80.3 32.0
UH Manoa Atmospheric Sciences 2/26/21 1800 76.9 65 64.1 9.5 ENE | 61 21.6 0.00 129 76.9 30.10 0.00 73.5 80.3 32.0
UH Manoa Atmospheric Sciences 2/26/21 1745 77.1 64 64.2 11.6 ENE | 60 21.7 0.00 190 77.1 30.09 0.00 73.5 80.3 32.0
UH Manoa Atmospheric Sciences 2/26/21 1730 77.5 62 63.6 9.3 ENE | 57 19.1 0.00 244 77.5 30.09 0.00 73.5 80.3 32.0
UH Manoa Atmospheric Sciences 2/26/21 1715 77.5 63 63.9 11.2 ENE | 63 25.2 0.00 264 77.5 30.08 0.00 73.5 80.3 32.0
UH Manoa Atmospheric Sciences 2/26/21 1700 77.3 64 64.4 8.7 ENE | 62 17.1 0.00 292 77.3 30.08 0.00 73.5 80.3 32.0
UH Manoa Atmospheric Sciences 2/26/21 1645 77.2 65 64.8 9.0 ENE | 60 21.2 0.00 306 77.2 30.08 0.00 73.5 80.3 32.0
UH Manoa Atmospheric Sciences 2/26/21 1630 76.9 67 65.3 8.9 ENE | 60 14.7 0.00 473 76.9 30.07 0.00 73.5 80.3 32.0
UH Manoa Atmospheric Sciences 2/26/21 1615 76.1 72 66.2 8.6 NE | 55 15.6 0.00 296 76.1 30.07 0.00 73.5 80.3 32.0
UH Manoa Atmospheric Sciences 2/26/21 1600 77.3 70 66.6 9.0 NE | 47 17.1 0.00 659 77.3 30.07 0.00 73.5 80.3 32.0
UH Manoa Atmospheric Sciences 2/26/21 1545 79.2 60 64.2 8.1 ENE | 66 16.0 0.00 701 79.2 30.07 0.00 73.5 80.3 32.0
UH Manoa Atmospheric Sciences 2/26/21 1530 78.9 60 64.0 10.5 ENE | 61 20.2 0.00 732 78.9 30.07 0.00 73.5 80.3 32.0
UH Manoa Atmospheric Sciences 2/26/21 1515 78.5 61 64.0 11.3 ENE | 60 23.8 0.00 769 78.5 30.07 0.00 73.5 80.3 32.0
UH Manoa Atmospheric Sciences 2/26/21 1500 79.3 59 63.8 8.9 ENE | 66 20.6 0.00 800 79.3 30.07 0.00 73.5 80.3 32.0
UH Manoa Atmospheric Sciences 2/26/21 1445 79.2 59 63.5 9.9 ENE | 59 22.2 0.00 779 79.3 30.07 0.00 73.5 80.3 32.0
UH Manoa Atmospheric Sciences 2/26/21 1430 79.0 59 63.5 11.4 ENE | 62 32.0 0.00 844 79.0 30.07 0.00 73.5 80.1 32.0
UH Manoa Atmospheric Sciences 2/26/21 1415 79.0 59 63.6 12.3 NE | 52 23.4 0.00 874 79.1 30.07 0.00 73.5 80.1 30.2
UH Manoa Atmospheric Sciences 2/26/21 1400 79.0 59 63.5 12.0 ENE | 58 25.1 0.00 898 79.0 30.07 0.00 73.5 80.0 30.2
UH Manoa Atmospheric Sciences 2/26/21 1345 78.9 59 63.5 12.3 ENE | 67 25.6 0.00 910 78.9 30.08 0.00 73.5 80.0 30.2
UH Manoa Atmospheric Sciences 2/26/21 1330 79.2 59 63.9 11.0 ENE | 65 23.7 0.00 929 79.2 30.08 0.00 73.5 79.9 30.2
UH Manoa Atmospheric Sciences 2/26/21 1315 79.1 59 63.7 11.0 ENE | 63 20.9 0.00 936 79.1 30.09 0.00 73.5 79.9 30.2
UH Manoa Atmospheric Sciences 2/26/21 1300 79.0 58 63.2 12.5 ENE | 63 22.8 0.00 906 79.0 30.09 0.00 73.5 79.9 30.2
UH Manoa Atmospheric Sciences 2/26/21 1245 78.8 59 63.5 11.1 NE | 56 21.6 0.00 947 78.8 30.10 0.00 73.5 79.6 30.2
UH Manoa Atmospheric Sciences 2/26/21 1230 78.6 60 63.6 11.8 ENE | 62 27.4 0.00 843 78.6 30.11 0.00 73.5 79.4 30.2
UH Manoa Atmospheric Sciences 2/26/21 1215 78.4 60 63.6 13.7 ENE | 63 26.7 0.00 851 78.4 30.11 0.00 73.5 79.4 30.2
UH Manoa Atmospheric Sciences 2/26/21 1200 78.6 61 63.9 11.6 ENE | 59 24.4 0.00 939 78.6 30.12 0.00 73.5 79.4 30.2
UH Manoa Atmospheric Sciences 2/26/21 1145 78.4 62 64.1 12.0 ENE | 59 22.5 0.00 917 78.4 30.13 0.00 73.5 79.2 30.2
UH Manoa Atmospheric Sciences 2/26/21 1130 78.5 61 63.8 10.8 ENE | 67 17.5 0.00 837 78.5 30.13 0.00 73.5 79.2 30.2
UH Manoa Atmospheric Sciences 2/26/21 1115 78.3 60 63.3 11.6 ENE | 61 25.0 0.00 887 78.3 30.14 0.00 73.5 79.0 30.2
UH Manoa Atmospheric Sciences 2/26/21 1100 77.6 62 63.7 11.0 NE | 56 23.6 0.00 765 77.6 30.15 0.00 73.5 78.4 30.2
UH Manoa Atmospheric Sciences 2/26/21 1045 77.0 65 64.2 11.5 ENE | 62 21.8 0.00 669 77.0 30.15 0.00 73.5 77.7 30.2
UH Manoa Atmospheric Sciences 2/26/21 1030 76.6 65 64.0 11.6 ENE | 62 20.6 0.00 677 76.6 30.15 0.00 73.5 77.3 30.2
UH Manoa Atmospheric Sciences 2/26/21 1015 76.2 64 63.2 13.8 ENE | 61 24.4 0.00 656 76.2 30.15 0.00 73.5 76.8 30.2
UH Manoa Atmospheric Sciences 2/26/21 1000 76.1 66 63.8 13.1 ENE | 59 25.4 0.00 589 76.1 30.15 0.00 73.5 76.8 30.2
UH Manoa Atmospheric Sciences 2/26/21 0945 76.2 62 62.4 12.1 ENE | 61 22.7 0.00 578 76.2 30.15 0.00 73.5 76.8 30.2
UH Manoa Atmospheric Sciences 2/26/21 0930 76.2 63 62.8 10.6 ENE | 66 27.6 0.00 520 76.2 30.15 0.00 73.5 76.6 30.2
UH Manoa Atmospheric Sciences 2/26/21 0915 75.6 68 64.2 10.0 ENE | 61 19.5 0.00 413 75.6 30.14 0.00 73.5 76.2 30.2
UH Manoa Atmospheric Sciences 2/26/21 0900 75.8 66 63.7 10.4 ENE | 62 20.7 0.00 414 75.8 30.14 0.00 73.5 76.2 30.2
UH Manoa Atmospheric Sciences 2/26/21 0845 75.4 66 63.5 9.3 ENE | 65 18.8 0.00 361 75.4 30.14 0.00 73.5 75.9 30.2
UH Manoa Atmospheric Sciences 2/26/21 0830 75.3 67 63.7 9.6 ENE | 64 18.8 0.00 271 75.3 30.14 0.00 73.5 75.7 30.2
UH Manoa Atmospheric Sciences 2/26/21 0815 74.9 68 63.6 10.2 ENE | 68 23.2 0.00 141 74.9 30.13 0.00 73.5 75.3 30.2
UH Manoa Atmospheric Sciences 2/26/21 0800 74.8 67 63.1 8.7 ENE | 65 20.4 0.00 108 74.8 30.12 0.00 73.5 75.2 30.2
UH Manoa Atmospheric Sciences 2/26/21 0745 74.5 67 62.8 9.4 ENE | 62 21.8 0.00 74 74.5 30.12 0.00 73.5 75.2 30.2
UH Manoa Atmospheric Sciences 2/26/21 0730 74.3 67 62.8 11.3 ENE | 65 21.2 0.00 53 74.3 30.12 0.00 73.5 75.2 30.2
UH Manoa Atmospheric Sciences 2/26/21 0715 74.3 67 62.7 10.7 NE | 55 21.6 0.00 12 74.3 30.11 0.00 73.5 75.2 30.2
UH Manoa Atmospheric Sciences 2/26/21 0700 74.1 67 62.4 10.5 ENE | 65 18.6 0.00 1 74.1 30.11 0.00 73.5 75.2 30.2
UH Manoa Atmospheric Sciences 2/26/21 0645 74.0 67 62.2 10.3 ENE | 66 18.2 0.00 0 74.0 30.10 0.00 73.5 75.2 30.2
UH Manoa Atmospheric Sciences 2/26/21 0630 74.0 67 62.2 11.2 ENE | 61 26.2 0.00 0 74.0 30.10 0.00 73.5 75.2 30.2
UH Manoa Atmospheric Sciences 2/26/21 0615 74.1 66 62.0 10.2 ENE | 64 23.0 0.00 0 74.1 30.10 0.00 73.5 75.2 30.2
UH Manoa Atmospheric Sciences 2/26/21 0600 74.0 66 62.0 11.9 ENE | 62 22.5 0.00 0 74.0 30.09 0.00 73.5 75.2 30.2
UH Manoa Atmospheric Sciences 2/26/21 0545 74.1 65 61.5 11.9 ENE | 62 25.5 0.00 0 74.1 30.09 0.00 73.5 75.2 30.2
UH Manoa Atmospheric Sciences 2/26/21 0530 74.0 65 61.7 12.0 ENE | 66 21.8 0.00 0 74.0 30.09 0.00 73.5 75.2 30.2
UH Manoa Atmospheric Sciences 2/26/21 0515 73.9 66 61.7 10.2 ENE | 66 19.6 0.00 0 73.9 30.08 0.00 73.5 75.2 30.2
UH Manoa Atmospheric Sciences 2/26/21 0500 73.8 65 61.4 9.8 ENE | 63 20.3 0.00 0 73.8 30.08 0.00 73.6 75.2 30.2
UH Manoa Atmospheric Sciences 2/26/21 0445 73.9 64 60.9 9.6 ENE | 61 20.3 0.00 0 73.9 30.08 0.00 73.7 75.2 30.2
UH Manoa Atmospheric Sciences 2/26/21 0430 73.9 63 60.4 9.9 ENE | 61 23.0 0.00 0 73.9 30.08 0.00 73.7 75.2 30.2
UH Manoa Atmospheric Sciences 2/26/21 0415 73.9 64 61.0 10.5 ENE | 66 22.3 0.00 0 73.9 30.08 0.00 73.7 75.2 30.2
UH Manoa Atmospheric Sciences 2/26/21 0400 73.9 64 61.0 10.8 ENE | 67 22.6 0.00 0 73.9 30.08 0.00 73.7 75.2 30.2
UH Manoa Atmospheric Sciences 2/26/21 0345 74.0 65 61.4 12.3 ENE | 68 27.6 0.00 0 74.0 30.08 0.00 73.7 75.2 30.2
UH Manoa Atmospheric Sciences 2/26/21 0330 74.0 67 62.4 10.7 ENE | 62 19.5 0.00 0 74.0 30.08 0.00 73.7 75.2 30.2
UH Manoa Atmospheric Sciences 2/26/21 0315 74.0 67 62.2 11.8 ENE | 63 18.6 0.00 0 74.0 30.08 0.00 73.7 75.2 30.2
UH Manoa Atmospheric Sciences 2/26/21 0300 74.0 66 62.2 12.1 ENE | 62 30.2 0.00 0 74.0 30.08 0.00 73.7 75.2 30.2
UH Manoa Atmospheric Sciences 2/26/21 0245 74.3 67 62.5 12.0 ENE | 65 26.8 0.00 0 74.3 30.09 0.00 73.7 75.2 29.4
UH Manoa Atmospheric Sciences 2/26/21 0230 74.3 68 63.0 10.8 ENE | 61 22.4 0.00 0 74.3 30.09 0.00 73.7 75.2 29.4
UH Manoa Atmospheric Sciences 2/26/21 0215 74.4 68 63.2 10.8 ENE | 62 26.4 0.00 0 74.4 30.09 0.00 73.7 75.2 29.4
UH Manoa Atmospheric Sciences 2/26/21 0200 74.5 69 63.8 11.2 ENE | 63 25.4 0.00 0 74.5 30.10 0.00 73.7 75.2 29.4
UH Manoa Atmospheric Sciences 2/26/21 0145 74.3 70 63.9 11.6 ENE | 62 23.2 0.00 0 74.3 30.10 0.00 73.7 75.2 29.4
UH Manoa Atmospheric Sciences 2/26/21 0130 74.1 72 64.6 13.3 ENE | 64 25.9 0.00 0 74.1 30.10 0.00 73.7 75.2 29.4
UH Manoa Atmospheric Sciences 2/26/21 0115 74.5 68 63.3 14.3 ENE | 65 27.4 0.00 0 74.5 30.10 0.00 74.3 75.2 29.4
UH Manoa Atmospheric Sciences 2/26/21 0100 74.4 67 62.8 11.7 ENE | 63 25.1 0.00 0 74.4 30.11 0.00 74.3 75.2 29.4
UH Manoa Atmospheric Sciences 2/26/21 0045 74.3 69 63.4 13.0 ENE | 69 21.9 0.00 0 74.3 30.11 0.00 74.3 75.2 29.4
UH Manoa Atmospheric Sciences 2/26/21 0030 74.5 68 63.4 13.6 ENE | 64 29.4 0.00 0 74.5 30.12 0.00 74.3 75.2 29.4
UH Manoa Atmospheric Sciences 2/26/21 0015 74.8 70 64.3 12.2 ENE | 63 26.8 0.00 0 74.8 30.12 0.00 74.5 75.2 26.8
UH Manoa Atmospheric Sciences 2/26/21 0000 74.9 69 64.1 11.9 ENE | 64 26.9 0.00 0 74.9 30.11 0.00 74.0 80.2 36.5
UH Manoa Atmospheric Sciences 2/25/21 2345 75.0 69 64.1 13.0 ENE | 66 27.4 0.00 0 75.0 30.12 0.00 74.0 80.2 36.5
UH Manoa Atmospheric Sciences 2/25/21 2330 74.7 70 64.1 11.0 ENE | 68 23.0 0.00 0 74.7 30.12 0.00 74.0 80.2 36.5
UH Manoa Atmospheric Sciences 2/25/21 2315 74.7 70 64.3 11.6 ENE | 67 25.1 0.00 0 74.7 30.11 0.00 74.0 80.2 36.5
UH Manoa Atmospheric Sciences 2/25/21 2300 74.5 71 64.6 13.2 ENE | 61 26.8 0.00 0 74.5 30.11 0.00 74.0 80.2 36.5
UH Manoa Atmospheric Sciences 2/25/21 2245 74.3 73 65.2 12.1 ENE | 65 25.7 0.00 0 74.3 30.11 0.00 74.0 80.2 36.5
Max     79.3 73 66.6 14.3 - 32.0 0.00 947 79.3 30.16 0.00 74.5 80.3 36.5
Avg     75.9 65 63.3 10.9 - 22.6 0.00 263 75.9 30.11 - - - -
Min     73.8 58 60.4 6.7 - 14.3 0.00 0 73.8 30.07 0.00 73.5 75.2 26.8